Time;durP1;ratioP1;P1;durP2;ratioP2;P2;SDS_P1;SDS_P2;PMS_P1;PMS_P2;Temp;Humidity;BMP_temperature;BMP_pressure;BME280_temperature;BME280_humidity;BME280_pressure;Samples;Min_cycle;Max_cycle;Signal;HPM_P1;HPM_P2
2023/08/02 00:01:02;;;;;;;;;;;21.10;70.90;;;;;;4997568;28;818;-71
2023/08/02 00:03:27;;;;;;;;;;;21.10;70.90;;;;;;5004823;28;1275;-71
2023/08/02 00:05:54;;;;;;;;;;;21.10;70.90;;;;;;5002220;28;943;-71
2023/08/02 00:08:20;;;;;;;;;;;21.10;70.90;;;;;;4985046;28;883;-71
2023/08/02 00:10:45;;;;;;;;;;;21.10;70.90;;;;;;5002589;28;930;-71
2023/08/02 00:13:11;;;;;;;;;;;21.10;70.90;;;;;;5000926;28;1378;-71
2023/08/02 00:15:39;;;;;;;;;;;21.10;70.90;;;;;;5002219;28;1903;-71
2023/08/02 00:18:05;;;;;;;;;;;21.10;70.90;;;;;;5002772;28;970;-71
2023/08/02 00:20:30;;;;;;;;;;;21.10;70.90;;;;;;5001063;28;1140;-71
2023/08/02 00:22:55;;;;;;;;;;;21.10;71.00;;;;;;5001475;28;1314;-70
2023/08/02 00:25:24;;;;;;;;;;;21.10;70.90;;;;;;5000710;28;810;-71
2023/08/02 00:27:49;;;;;;;;;;;21.10;70.90;;;;;;4999837;28;1394;-71
2023/08/02 00:30:15;;;;;;;;;;;21.10;70.90;;;;;;5002567;28;888;-71
2023/08/02 00:32:44;;;;;;;;;;;21.10;70.90;;;;;;4997184;28;1810;-71
2023/08/02 00:35:09;;;;;;;;;;;21.10;70.90;;;;;;4997797;28;1934;-71
2023/08/02 00:37:35;;;;;;;;;;;21.10;71.00;;;;;;4999758;28;958;-71
2023/08/02 00:40:00;;;;;;;;;;;21.10;70.90;;;;;;5002237;28;904;-71
2023/08/02 00:42:25;;;;;;;;;;;21.10;70.90;;;;;;4997865;28;1448;-71
2023/08/02 00:44:51;;;;;;;;;;;21.10;71.00;;;;;;5000904;28;1238;-70
2023/08/02 00:47:16;;;;;;;;;;;21.10;70.90;;;;;;5000307;28;801;-71
2023/08/02 00:49:42;;;;;;;;;;;21.10;71.00;;;;;;4994527;28;1276;-71
2023/08/02 00:52:07;;;;;;;;;;;21.10;70.90;;;;;;4996953;28;809;-71
2023/08/02 00:54:33;;;;;;;;;;;21.10;70.90;;;;;;4987848;28;1915;-71
2023/08/02 00:56:58;;;;;;;;;;;21.10;70.90;;;;;;5009182;28;1226;-71
2023/08/02 00:59:24;;;;;;;;;;;21.10;70.90;;;;;;4999423;28;1008;-71
2023/08/02 01:01:49;;;;;;;;;;;21.10;70.90;;;;;;5003858;28;1337;-71
2023/08/02 01:04:15;;;;;;;;;;;21.10;70.90;;;;;;5007987;28;1326;-71
2023/08/02 01:06:48;;;;;;;;;;;21.10;71.00;;;;;;5003265;28;1325;-71
2023/08/02 01:09:15;;;;;;;;;;;21.10;71.00;;;;;;4991434;28;1441;-71
2023/08/02 01:11:40;;;;;;;;;;;21.10;71.00;;;;;;4999178;28;908;-71
2023/08/02 01:14:07;;;;;;;;;;;21.10;71.00;;;;;;5002715;28;1979;-71
2023/08/02 01:16:32;;;;;;;;;;;21.10;71.00;;;;;;4985977;28;880;-71
2023/08/02 01:18:59;;;;;;;;;;;21.10;70.90;;;;;;4998561;28;1439;-71
2023/08/02 01:21:24;;;;;;;;;;;21.10;70.90;;;;;;4999033;28;1103;-70
2023/08/02 01:23:50;;;;;;;;;;;21.10;70.90;;;;;;5003559;28;1259;-71
2023/08/02 01:26:15;;;;;;;;;;;21.10;70.90;;;;;;5003573;28;907;-71
2023/08/02 01:28:41;;;;;;;;;;;21.10;70.90;;;;;;4987483;28;1335;-71
2023/08/02 01:31:06;;;;;;;;;;;21.10;70.90;;;;;;4988668;28;904;-71
2023/08/02 01:33:33;;;;;;;;;;;21.10;70.90;;;;;;5000930;28;1283;-71
2023/08/02 01:35:59;;;;;;;;;;;21.10;70.90;;;;;;5000662;28;904;-71
2023/08/02 01:38:24;;;;;;;;;;;21.10;71.00;;;;;;5000518;28;1246;-70
2023/08/02 01:40:50;;;;;;;;;;;21.10;70.90;;;;;;5001618;28;1218;-71
2023/08/02 01:43:15;;;;;;;;;;;21.10;70.90;;;;;;5002553;28;1387;-71
2023/08/02 01:45:41;;;;;;;;;;;21.10;71.00;;;;;;4985065;28;863;-71
2023/08/02 01:48:06;;;;;;;;;;;21.10;70.90;;;;;;4996117;28;1050;-71
2023/08/02 01:50:32;;;;;;;;;;;21.10;70.90;;;;;;4997686;28;783;-71
2023/08/02 01:52:57;;;;;;;;;;;21.10;71.00;;;;;;4998123;28;1261;-71
2023/08/02 01:55:23;;;;;;;;;;;21.10;70.90;;;;;;4997429;28;1910;-71
2023/08/02 01:57:48;;;;;;;;;;;21.10;71.00;;;;;;4994379;28;900;-71
2023/08/02 02:00:14;;;;;;;;;;;21.10;70.90;;;;;;4997173;28;879;-71
2023/08/02 02:02:39;;;;;;;;;;;21.10;70.90;;;;;;5000414;28;1257;-71
2023/08/02 02:05:05;;;;;;;;;;;21.10;71.00;;;;;;4996691;28;833;-71
2023/08/02 02:07:31;;;;;;;;;;;21.10;70.90;;;;;;5002406;28;1050;-71
2023/08/02 02:09:56;;;;;;;;;;;21.10;71.00;;;;;;4999658;28;813;-71
2023/08/02 02:12:21;;;;;;;;;;;21.10;71.00;;;;;;5003339;28;982;-71
2023/08/02 02:14:47;;;;;;;;;;;21.10;71.00;;;;;;5001513;28;1887;-71
2023/08/02 02:17:12;;;;;;;;;;;21.10;71.00;;;;;;4999251;28;991;-71
2023/08/02 02:19:38;;;;;;;;;;;21.10;71.00;;;;;;5000237;28;1342;-71
2023/08/02 02:22:03;;;;;;;;;;;21.10;71.00;;;;;;5002773;28;913;-71
2023/08/02 02:24:29;;;;;;;;;;;21.10;71.00;;;;;;4999451;28;1299;-71
2023/08/02 02:26:54;;;;;;;;;;;21.10;71.00;;;;;;4998308;28;824;-71
2023/08/02 02:29:20;;;;;;;;;;;21.10;71.00;;;;;;5001053;28;1284;-71
2023/08/02 02:31:45;;;;;;;;;;;21.10;71.00;;;;;;4981506;28;1211;-71
2023/08/02 02:34:10;;;;;;;;;;;21.10;70.90;;;;;;5000573;28;1890;-71
2023/08/02 02:36:38;;;;;;;;;;;21.10;71.00;;;;;;5002650;28;860;-71
2023/08/02 02:39:03;;;;;;;;;;;21.10;70.90;;;;;;5001195;28;1354;-71
2023/08/02 02:41:29;;;;;;;;;;;21.10;71.00;;;;;;5002372;28;909;-71
2023/08/02 02:43:54;;;;;;;;;;;21.10;70.90;;;;;;4997604;28;1240;-71
2023/08/02 02:46:20;;;;;;;;;;;21.10;71.00;;;;;;4998250;28;920;-71
2023/08/02 02:48:45;;;;;;;;;;;21.10;71.00;;;;;;5000703;28;963;-71
2023/08/02 02:51:10;;;;;;;;;;;21.10;70.90;;;;;;4997824;28;959;-70
2023/08/02 02:53:36;;;;;;;;;;;21.10;70.90;;;;;;4985487;28;1388;-71
2023/08/02 02:56:01;;;;;;;;;;;21.10;71.00;;;;;;4998872;28;1910;-71
2023/08/02 02:58:27;;;;;;;;;;;21.10;71.00;;;;;;4996979;28;884;-71
2023/08/02 03:00:53;;;;;;;;;;;21.10;71.00;;;;;;5000055;28;1527;-71
2023/08/02 03:03:19;;;;;;;;;;;21.10;71.00;;;;;;5002425;28;1341;-71
2023/08/02 03:05:45;;;;;;;;;;;21.10;71.00;;;;;;5000756;28;879;-71
2023/08/02 03:08:10;;;;;;;;;;;21.10;71.00;;;;;;4990209;28;1390;-71
2023/08/02 03:10:36;;;;;;;;;;;21.10;70.90;;;;;;5000566;28;865;-71
2023/08/02 03:13:01;;;;;;;;;;;21.10;70.90;;;;;;5001251;28;1354;-71
2023/08/02 03:15:27;;;;;;;;;;;21.10;71.00;;;;;;5001979;28;1907;-71
2023/08/02 03:17:52;;;;;;;;;;;21.10;71.00;;;;;;5000760;28;884;-71
2023/08/02 03:20:18;;;;;;;;;;;21.10;71.00;;;;;;5000420;28;1424;-71
2023/08/02 03:22:43;;;;;;;;;;;21.10;71.00;;;;;;5000283;28;1287;-70
2023/08/02 03:25:09;;;;;;;;;;;21.10;71.00;;;;;;4985992;28;1434;-70
2023/08/02 03:27:34;;;;;;;;;;;21.10;71.00;;;;;;4998337;28;1310;-70
2023/08/02 03:29:59;;;;;;;;;;;21.10;71.00;;;;;;4999045;28;1495;-70
2023/08/02 03:32:28;;;;;;;;;;;21.10;71.00;;;;;;4997851;28;822;-70
2023/08/02 03:34:53;;;;;;;;;;;21.10;71.00;;;;;;4996037;28;1983;-72
2023/08/02 03:37:21;;;;;;;;;;;21.10;71.00;;;;;;5003391;28;805;-71
2023/08/02 03:39:47;;;;;;;;;;;21.10;71.00;;;;;;4992779;28;1262;-70
2023/08/02 03:42:12;;;;;;;;;;;21.10;71.00;;;;;;5003329;28;931;-70
2023/08/02 03:44:38;;;;;;;;;;;21.10;71.00;;;;;;5002776;28;1289;-70
2023/08/02 03:47:04;;;;;;;;;;;21.10;71.00;;;;;;5005337;28;1026;-70
2023/08/02 03:49:29;;;;;;;;;;;21.10;71.00;;;;;;4986155;28;933;-70
2023/08/02 03:51:55;;;;;;;;;;;21.10;71.00;;;;;;5000554;28;1305;-71
2023/08/02 03:54:20;;;;;;;;;;;21.10;71.00;;;;;;5000112;28;1926;-70
2023/08/02 03:56:45;;;;;;;;;;;21.10;71.00;;;;;;4999961;28;904;-70
2023/08/02 03:59:11;;;;;;;;;;;21.10;71.00;;;;;;4999323;28;908;-70
2023/08/02 04:01:36;;;;;;;;;;;21.10;71.00;;;;;;5004665;28;800;-70
2023/08/02 04:04:02;;;;;;;;;;;21.10;71.00;;;;;;4990032;28;1334;-70
2023/08/02 04:06:27;;;;;;;;;;;21.10;71.10;;;;;;5003213;28;891;-71
2023/08/02 04:08:53;;;;;;;;;;;21.10;71.00;;;;;;5001515;28;1090;-70
2023/08/02 04:11:18;;;;;;;;;;;21.10;71.00;;;;;;5004622;28;818;-71
2023/08/02 04:13:44;;;;;;;;;;;21.10;71.00;;;;;;5001949;28;1906;-70
2023/08/02 04:16:09;;;;;;;;;;;21.10;71.10;;;;;;5000171;28;947;-70
2023/08/02 04:18:34;;;;;;;;;;;21.10;71.10;;;;;;5002091;28;1308;-71
2023/08/02 04:21:00;;;;;;;;;;;21.10;71.10;;;;;;5001421;28;999;-71
2023/08/02 04:23:26;;;;;;;;;;;21.10;71.10;;;;;;5003404;28;1460;-70
2023/08/02 04:25:52;;;;;;;;;;;21.10;71.10;;;;;;4988916;28;864;-72
2023/08/02 04:28:17;;;;;;;;;;;21.10;71.10;;;;;;4983343;28;1395;-70
2023/08/02 04:30:43;;;;;;;;;;;21.10;71.10;;;;;;5000483;28;892;-71
2023/08/02 04:33:08;;;;;;;;;;;21.10;71.10;;;;;;5002118;28;1268;-71
2023/08/02 04:35:33;;;;;;;;;;;21.10;71.10;;;;;;4999059;28;1906;-70
2023/08/02 04:37:59;;;;;;;;;;;21.10;71.90;;;;;;5000789;28;1273;-70
2023/08/02 04:40:24;;;;;;;;;;;21.10;71.10;;;;;;4998559;28;1228;-70
2023/08/02 04:42:50;;;;;;;;;;;21.10;71.10;;;;;;5004460;28;1362;-70
2023/08/02 04:45:15;;;;;;;;;;;21.10;71.10;;;;;;4996078;28;898;-72
2023/08/02 04:47:41;;;;;;;;;;;21.10;71.10;;;;;;4999056;28;912;-72
2023/08/02 04:50:06;;;;;;;;;;;21.10;71.10;;;;;;4999797;28;1023;-71
2023/08/02 04:52:33;;;;;;;;;;;21.10;71.10;;;;;;5004322;28;1212;-71
2023/08/02 04:54:58;;;;;;;;;;;21.10;71.10;;;;;;5002347;28;1910;-71
2023/08/02 04:57:24;;;;;;;;;;;21.10;71.10;;;;;;5001225;28;790;-71
2023/08/02 04:59:53;;;;;;;;;;;21.00;71.10;;;;;;4999347;28;1227;-71
2023/08/02 05:02:20;;;;;;;;;;;21.10;71.10;;;;;;5001953;28;841;-71
2023/08/02 05:04:51;;;;;;;;;;;21.10;71.10;;;;;;4998707;28;1164;-70
2023/08/02 05:07:16;;;;;;;;;;;21.10;71.10;;;;;;5006433;28;959;-72
2023/08/02 05:09:43;;;;;;;;;;;21.10;71.10;;;;;;4999532;28;1042;-71
2023/08/02 05:12:08;;;;;;;;;;;21.10;71.10;;;;;;4998624;28;855;-72
2023/08/02 05:14:34;;;;;;;;;;;21.10;71.10;;;;;;4985120;28;2009;-71
2023/08/02 05:16:59;;;;;;;;;;;21.10;71.10;;;;;;5000095;28;959;-71
2023/08/02 05:19:25;;;;;;;;;;;21.10;71.10;;;;;;4999929;28;1384;-71
2023/08/02 05:21:50;;;;;;;;;;;21.10;71.20;;;;;;4998511;28;939;-72
2023/08/02 05:24:15;;;;;;;;;;;21.10;71.10;;;;;;4999666;28;1300;-73
2023/08/02 05:26:41;;;;;;;;;;;21.10;71.20;;;;;;4997019;28;896;-73
2023/08/02 05:29:06;;;;;;;;;;;21.10;71.10;;;;;;4999990;28;1301;-74
2023/08/02 05:31:32;;;;;;;;;;;21.10;71.10;;;;;;5002020;28;824;-73
2023/08/02 05:33:57;;;;;;;;;;;21.10;71.10;;;;;;5002560;28;1967;-73
2023/08/02 05:36:23;;;;;;;;;;;21.10;71.20;;;;;;5000873;28;892;-73
2023/08/02 05:38:48;;;;;;;;;;;21.10;71.20;;;;;;4997071;28;1347;-73
2023/08/02 05:41:14;;;;;;;;;;;21.10;71.10;;;;;;5001529;28;1265;-73
2023/08/02 05:43:42;;;;;;;;;;;21.10;71.20;;;;;;4994331;28;1894;-72
2023/08/02 05:46:07;;;;;;;;;;;21.00;71.10;;;;;;5000828;28;1391;-72
2023/08/02 05:48:33;;;;;;;;;;;21.00;71.10;;;;;;5000730;28;1118;-70
2023/08/02 05:50:58;;;;;;;;;;;21.00;71.10;;;;;;4998616;28;1472;-72
2023/08/02 05:53:24;;;;;;;;;;;21.10;71.20;;;;;;4995160;28;1329;-71
2023/08/02 05:55:49;;;;;;;;;;;21.10;71.20;;;;;;4995732;28;1930;-71
2023/08/02 05:58:16;;;;;;;;;;;21.00;71.10;;;;;;4994419;28;960;-71
2023/08/02 06:00:41;;;;;;;;;;;21.10;71.20;;;;;;5000759;28;880;-70
2023/08/02 06:03:06;;;;;;;;;;;21.10;71.20;;;;;;4998471;28;1185;-71
2023/08/02 06:05:32;;;;;;;;;;;21.10;71.20;;;;;;4999635;28;851;-71
2023/08/02 06:07:57;;;;;;;;;;;21.10;71.20;;;;;;4997863;28;951;-68
2023/08/02 06:10:23;;;;;;;;;;;21.10;71.20;;;;;;4999946;28;1035;-69
2023/08/02 06:12:48;;;;;;;;;;;21.00;71.10;;;;;;4999227;28;1359;-70
2023/08/02 06:15:14;;;;;;;;;;;21.10;71.20;;;;;;4997525;28;1966;-73
2023/08/02 06:17:39;;;;;;;;;;;21.10;71.20;;;;;;4998376;28;888;-74
2023/08/02 06:20:06;;;;;;;;;;;21.00;71.90;;;;;;4998020;28;1237;-70
2023/08/02 06:22:32;;;;;;;;;;;21.10;71.20;;;;;;5000445;28;1276;-74
2023/08/02 06:24:57;;;;;;;;;;;21.10;71.20;;;;;;5000276;28;1090;-69
2023/08/02 06:27:24;;;;;;;;;;;21.00;71.10;;;;;;5005968;28;1276;-70
2023/08/02 06:29:50;;;;;;;;;;;21.10;71.20;;;;;;4986157;28;1495;-70
2023/08/02 06:32:15;;;;;;;;;;;21.10;71.20;;;;;;4998746;28;1206;-70
2023/08/02 06:34:41;;;;;;;;;;;21.10;71.20;;;;;;4996909;28;1967;-70
2023/08/02 06:37:06;;;;;;;;;;;21.00;71.10;;;;;;4997603;28;908;-69
2023/08/02 06:39:32;;;;;;;;;;;21.10;71.20;;;;;;5000729;28;1539;-71
2023/08/02 06:41:58;;;;;;;;;;;21.10;71.20;;;;;;4983490;28;926;-68
2023/08/02 06:44:23;;;;;;;;;;;21.00;71.20;;;;;;4996521;28;1275;-68
2023/08/02 06:46:49;;;;;;;;;;;21.00;71.20;;;;;;5000592;28;1215;-73
2023/08/02 06:49:14;;;;;;;;;;;21.00;71.20;;;;;;4997876;28;868;-74
2023/08/02 06:51:40;;;;;;;;;;;21.10;71.20;;;;;;5000768;28;863;-67
2023/08/02 06:54:05;;;;;;;;;;;21.00;71.10;;;;;;5000668;28;1902;-71
2023/08/02 06:56:31;;;;;;;;;;;21.00;71.90;;;;;;4997585;28;955;-72
2023/08/02 06:58:56;;;;;;;;;;;21.00;71.10;;;;;;5000836;28;904;-71
2023/08/02 07:01:22;;;;;;;;;;;21.10;71.20;;;;;;5002275;28;840;-71
2023/08/02 07:03:48;;;;;;;;;;;21.00;71.10;;;;;;4998260;28;1248;-70
2023/08/02 07:06:14;;;;;;;;;;;21.00;71.20;;;;;;4999729;28;832;-70
2023/08/02 07:08:39;;;;;;;;;;;21.00;71.20;;;;;;4995007;28;876;-72
2023/08/02 07:11:05;;;;;;;;;;;21.00;71.20;;;;;;4998274;28;879;-71
2023/08/02 07:13:31;;;;;;;;;;;21.10;71.20;;;;;;4995815;28;1318;-72
2023/08/02 07:15:56;;;;;;;;;;;21.00;71.20;;;;;;5002102;28;1906;-71
2023/08/02 07:18:22;;;;;;;;;;;21.00;71.90;;;;;;4999050;28;1392;-72
2023/08/02 07:20:47;;;;;;;;;;;21.00;71.20;;;;;;5001917;28;820;-72
2023/08/02 07:23:13;;;;;;;;;;;21.00;71.20;;;;;;5000707;28;1258;-72
2023/08/02 07:25:38;;;;;;;;;;;21.00;71.20;;;;;;4989519;28;995;-72
2023/08/02 07:28:04;;;;;;;;;;;21.10;71.20;;;;;;5004562;28;1003;-72
2023/08/02 07:30:29;;;;;;;;;;;21.00;71.20;;;;;;4999573;28;832;-72
2023/08/02 07:32:55;;;;;;;;;;;21.00;71.20;;;;;;5000462;28;1220;-71
2023/08/02 07:35:20;;;;;;;;;;;21.00;71.20;;;;;;5000022;28;1907;-71
2023/08/02 07:37:45;;;;;;;;;;;21.00;71.20;;;;;;4997736;28;1267;-70
2023/08/02 07:40:13;;;;;;;;;;;21.00;71.20;;;;;;4996709;28;809;-70
2023/08/02 07:42:38;;;;;;;;;;;21.00;71.20;;;;;;5001000;28;1797;-73
2023/08/02 07:45:06;;;;;;;;;;;21.00;71.20;;;;;;5002864;28;825;-70
2023/08/02 07:47:31;;;;;;;;;;;21.00;71.20;;;;;;4998849;28;864;-70
2023/08/02 07:49:57;;;;;;;;;;;21.00;71.20;;;;;;5000227;28;860;-70
2023/08/02 07:52:22;;;;;;;;;;;21.00;71.20;;;;;;4998555;28;852;-70
2023/08/02 07:54:51;;;;;;;;;;;21.00;71.20;;;;;;4997817;28;1894;-70
2023/08/02 07:57:16;;;;;;;;;;;21.00;71.20;;;;;;4999512;28;885;-71
2023/08/02 07:59:42;;;;;;;;;;;21.00;71.20;;;;;;4997017;28;876;-70
2023/08/02 08:02:07;;;;;;;;;;;21.00;71.20;;;;;;4999561;28;2165;-71
2023/08/02 08:04:33;;;;;;;;;;;21.00;71.20;;;;;;4998425;28;1329;-71
2023/08/02 08:06:58;;;;;;;;;;;21.00;71.20;;;;;;4997050;28;1236;-72
2023/08/02 08:09:24;;;;;;;;;;;21.00;71.20;;;;;;4996925;28;1042;-72
2023/08/02 08:11:49;;;;;;;;;;;21.00;71.20;;;;;;4980129;28;855;-72
2023/08/02 08:14:15;;;;;;;;;;;21.00;71.20;;;;;;4997670;28;1966;-72
2023/08/02 08:16:40;;;;;;;;;;;21.10;71.30;;;;;;4999343;28;924;-72
2023/08/02 08:19:06;;;;;;;;;;;21.00;71.20;;;;;;4998072;28;1300;-71
2023/08/02 08:21:31;;;;;;;;;;;21.00;71.20;;;;;;4999954;28;955;-72
2023/08/02 08:23:57;;;;;;;;;;;21.00;71.30;;;;;;4999771;28;1221;-71
2023/08/02 08:26:23;;;;;;;;;;;21.00;71.20;;;;;;5000013;28;1707;-71
2023/08/02 08:28:49;;;;;;;;;;;21.00;71.20;;;;;;5000112;28;1287;-71
2023/08/02 08:31:14;;;;;;;;;;;21.00;71.20;;;;;;5004347;28;798;-71
2023/08/02 08:33:39;;;;;;;;;;;21.00;71.20;;;;;;5006922;28;1241;-72
2023/08/02 08:36:11;;;;;;;;;;;21.00;71.30;;;;;;5004204;28;1957;-72
2023/08/02 08:38:37;;;;;;;;;;;21.10;72.00;;;;;;4985771;28;1360;-73
2023/08/02 08:41:03;;;;;;;;;;;21.00;71.20;;;;;;5004567;28;1011;-72
2023/08/02 08:43:28;;;;;;;;;;;21.00;71.20;;;;;;5004494;28;1343;-72
2023/08/02 08:45:54;;;;;;;;;;;21.00;71.20;;;;;;5004906;28;852;-72
2023/08/02 08:48:19;;;;;;;;;;;21.00;71.20;;;;;;4999062;28;856;-72
2023/08/02 08:50:45;;;;;;;;;;;21.10;71.30;;;;;;5000068;28;904;-72
2023/08/02 08:53:10;;;;;;;;;;;21.00;71.20;;;;;;4985170;28;1301;-72
2023/08/02 08:55:36;;;;;;;;;;;21.10;71.20;;;;;;5002498;28;1907;-72
2023/08/02 08:58:01;;;;;;;;;;;21.10;71.30;;;;;;4984823;28;924;-72
2023/08/02 09:00:27;;;;;;;;;;;21.10;71.20;;;;;;5003107;28;805;-72
2023/08/02 09:02:52;;;;;;;;;;;21.00;71.20;;;;;;4988864;28;1334;-71
2023/08/02 09:05:18;;;;;;;;;;;21.00;71.20;;;;;;4989294;28;1014;-71
2023/08/02 09:07:43;;;;;;;;;;;21.00;71.20;;;;;;4988805;28;908;-71
2023/08/02 09:10:09;;;;;;;;;;;21.00;71.20;;;;;;4991732;28;1011;-71
2023/08/02 09:12:44;;;;;;;;;;;21.00;71.20;;;;;;5000246;28;1367;-71
2023/08/02 09:15:10;;;;;;;;;;;21.00;71.20;;;;;;5001519;28;1911;-71
2023/08/02 09:17:51;;;;;;;;;;;21.00;71.20;;;;;;4999401;28;828;-72
2023/08/02 09:20:21;;;;;;;;;;;21.00;71.20;;;;;;5000988;28;1356;-71
2023/08/02 09:22:46;;;;;;;;;;;21.00;71.20;;;;;;5000897;28;1373;-72
2023/08/02 09:25:18;;;;;;;;;;;21.00;71.20;;;;;;5001604;28;880;-71
2023/08/02 09:27:44;;;;;;;;;;;21.00;71.20;;;;;;4990826;28;1966;-70
2023/08/02 09:30:09;;;;;;;;;;;21.00;71.30;;;;;;5000475;28;2110;-71
2023/08/02 09:32:35;;;;;;;;;;;21.00;71.20;;;;;;5001874;28;1393;-71
2023/08/02 09:35:00;;;;;;;;;;;21.00;71.20;;;;;;4990998;28;2194;-71
2023/08/02 09:37:29;;;;;;;;;;;21.00;71.20;;;;;;5005119;28;1328;-71
2023/08/02 09:39:55;;;;;;;;;;;21.00;71.20;;;;;;5000252;28;1392;-72
2023/08/02 09:42:27;;;;;;;;;;;21.00;71.20;;;;;;4998770;28;1388;-71
2023/08/02 09:44:53;;;;;;;;;;;21.00;71.20;;;;;;5000626;28;1208;-71
2023/08/02 09:47:18;;;;;;;;;;;21.00;71.20;;;;;;5003133;28;848;-71
2023/08/02 09:49:44;;;;;;;;;;;21.00;71.20;;;;;;5000615;28;1963;-71
2023/08/02 09:52:09;;;;;;;;;;;21.00;71.20;;;;;;5000494;28;1821;-71
2023/08/02 09:54:35;;;;;;;;;;;21.00;71.20;;;;;;5001517;28;1983;-71
2023/08/02 09:57:03;;;;;;;;;;;21.00;71.20;;;;;;4986917;28;975;-71
2023/08/02 09:59:29;;;;;;;;;;;21.00;71.30;;;;;;4997348;28;1214;-71
2023/08/02 10:01:55;;;;;;;;;;;21.00;71.20;;;;;;4983857;28;808;-70
2023/08/02 10:04:20;;;;;;;;;;;21.00;71.20;;;;;;4986030;28;1292;-71
2023/08/02 10:06:50;;;;;;;;;;;21.00;71.20;;;;;;5002369;28;885;-71
2023/08/02 10:09:19;;;;;;;;;;;21.00;71.20;;;;;;4999857;28;1231;-70
2023/08/02 10:11:47;;;;;;;;;;;21.00;71.20;;;;;;5000400;28;867;-70
2023/08/02 10:14:12;;;;;;;;;;;21.00;71.20;;;;;;4983776;28;1898;-71
2023/08/02 10:16:38;;;;;;;;;;;21.00;71.30;;;;;;5003411;28;1384;-71
2023/08/02 10:19:03;;;;;;;;;;;21.00;71.20;;;;;;5001697;28;1880;-71
2023/08/02 10:21:33;;;;;;;;;;;21.00;71.30;;;;;;4988278;28;1452;-70
2023/08/02 10:23:59;;;;;;;;;;;21.00;71.20;;;;;;4986673;28;1543;-70
2023/08/02 10:26:24;;;;;;;;;;;21.00;71.20;;;;;;4985946;28;1305;-70
2023/08/02 10:28:50;;;;;;;;;;;21.00;71.20;;;;;;4985746;28;1410;-69
2023/08/02 10:31:15;;;;;;;;;;;21.00;71.20;;;;;;5001133;28;896;-70
2023/08/02 10:33:41;;;;;;;;;;;21.00;71.20;;;;;;5001221;28;1349;-70
2023/08/02 10:36:07;;;;;;;;;;;21.00;71.20;;;;;;5001471;28;1902;-71
2023/08/02 10:38:38;;;;;;;;;;;21.00;71.20;;;;;;4998870;28;903;-71
2023/08/02 10:41:11;;;;;;;;;;;21.00;71.20;;;;;;4999827;28;1050;-71
2023/08/02 10:43:57;;;;;;;;;;;21.00;71.20;;;;;;4990310;28;1366;-70
2023/08/02 10:46:24;;;;;;;;;;;21.00;71.20;;;;;;4989282;28;1145;-70
2023/08/02 10:48:50;;;;;;;;;;;21.00;71.20;;;;;;5001240;28;868;-72
2023/08/02 10:51:34;;;;;;;;;;;21.00;71.20;;;;;;5001323;28;769;-71
2023/08/02 10:54:19;;;;;;;;;;;21.00;71.20;;;;;;5001467;28;1914;-72
2023/08/02 10:56:51;;;;;;;;;;;21.00;71.20;;;;;;4999266;28;918;-72
2023/08/02 10:59:22;;;;;;;;;;;21.00;71.20;;;;;;4997715;28;816;-71
2023/08/02 11:01:56;;;;;;;;;;;21.00;71.20;;;;;;4999518;28;844;-71
2023/08/02 11:04:22;;;;;;;;;;;21.00;71.20;;;;;;5000437;28;1367;-71
2023/08/02 11:06:48;;;;;;;;;;;21.00;71.30;;;;;;4997794;28;875;-71
2023/08/02 11:09:13;;;;;;;;;;;21.00;71.20;;;;;;4996473;28;892;-70
2023/08/02 11:11:39;;;;;;;;;;;21.00;71.30;;;;;;4984527;28;892;-71
2023/08/02 11:14:04;;;;;;;;;;;21.00;71.30;;;;;;4996014;28;1898;-71
2023/08/02 11:16:30;;;;;;;;;;;21.00;71.30;;;;;;5000897;28;877;-71
2023/08/02 11:18:56;;;;;;;;;;;21.00;71.30;;;;;;4998706;28;868;-71
2023/08/02 11:21:21;;;;;;;;;;;21.00;71.30;;;;;;4985094;28;870;-71
2023/08/02 11:23:49;;;;;;;;;;;21.00;71.30;;;;;;4999577;28;1257;-70
2023/08/02 11:26:15;;;;;;;;;;;21.00;71.20;;;;;;4999728;28;844;-71
2023/08/02 11:28:45;;;;;;;;;;;21.00;71.20;;;;;;4998035;28;1367;-71
2023/08/02 11:31:10;;;;;;;;;;;21.00;71.20;;;;;;4985104;28;881;-71
2023/08/02 11:33:36;;;;;;;;;;;21.00;71.20;;;;;;4995020;28;1376;-71
2023/08/02 11:36:02;;;;;;;;;;;21.00;71.20;;;;;;4983697;28;1898;-71
2023/08/02 11:38:27;;;;;;;;;;;21.00;71.20;;;;;;5001212;28;1434;-71
2023/08/02 11:40:53;;;;;;;;;;;21.00;71.30;;;;;;4981803;28;1564;-71
2023/08/02 11:43:18;;;;;;;;;;;21.00;71.20;;;;;;5001959;28;1365;-71
2023/08/02 11:45:44;;;;;;;;;;;21.00;71.20;;;;;;4995835;28;857;-71
2023/08/02 11:48:27;;;;;;;;;;;21.00;71.20;;;;;;4999910;28;864;-72
2023/08/02 11:50:53;;;;;;;;;;;21.00;71.20;;;;;;4999735;28;889;-71
2023/08/02 11:53:18;;;;;;;;;;;21.00;71.20;;;;;;4998414;28;1287;-71
2023/08/02 11:55:44;;;;;;;;;;;21.00;71.30;;;;;;5005667;28;1906;-71
2023/08/02 11:58:09;;;;;;;;;;;21.00;71.20;;;;;;4992615;28;1398;-72
2023/08/02 12:00:35;;;;;;;;;;;21.00;71.30;;;;;;4990569;28;829;-71
2023/08/02 12:03:11;;;;;;;;;;;21.00;71.20;;;;;;4990846;28;1362;-72
2023/08/02 12:05:36;;;;;;;;;;;21.00;71.30;;;;;;4991377;28;1366;-72
2023/08/02 12:08:11;;;;;;;;;;;21.00;71.30;;;;;;5000627;28;979;-72
2023/08/02 12:10:40;;;;;;;;;;;21.00;71.30;;;;;;5003999;28;861;-71
2023/08/02 12:13:14;;;;;;;;;;;21.00;71.30;;;;;;4993692;28;1287;-72
2023/08/02 12:15:40;;;;;;;;;;;21.00;71.30;;;;;;4992190;28;1964;-71
2023/08/02 12:18:06;;;;;;;;;;;21.00;71.30;;;;;;4994546;28;1275;-71
2023/08/02 12:20:31;;;;;;;;;;;21.10;71.40;;;;;;5005497;28;1906;-72
2023/08/02 12:22:57;;;;;;;;;;;21.00;71.30;;;;;;4993131;28;1386;-72
2023/08/02 12:25:22;;;;;;;;;;;21.00;71.30;;;;;;5006355;28;1464;-71
2023/08/02 12:28:04;;;;;;;;;;;21.10;71.40;;;;;;5003747;28;1475;-72
2023/08/02 12:30:29;;;;;;;;;;;21.00;71.40;;;;;;4985258;28;824;-72
2023/08/02 12:32:55;;;;;;;;;;;21.00;71.40;;;;;;5000356;28;1253;-72
2023/08/02 12:35:20;;;;;;;;;;;21.00;71.30;;;;;;5003682;28;1949;-71
2023/08/02 12:37:47;;;;;;;;;;;21.00;71.30;;;;;;4994787;28;2141;-71
2023/08/02 12:40:12;;;;;;;;;;;21.00;71.30;;;;;;5000579;28;1503;-72
2023/08/02 12:42:38;;;;;;;;;;;21.00;71.30;;;;;;5001573;28;1360;-72
2023/08/02 12:45:06;;;;;;;;;;;21.00;71.30;;;;;;5000317;28;921;-72
2023/08/02 12:47:32;;;;;;;;;;;21.00;71.40;;;;;;5001102;28;1254;-71
2023/08/02 12:49:57;;;;;;;;;;;21.00;71.30;;;;;;5001085;28;1152;-71
2023/08/02 12:52:23;;;;;;;;;;;21.00;71.30;;;;;;5006245;28;1198;-71
2023/08/02 12:54:48;;;;;;;;;;;21.00;71.30;;;;;;4986825;28;1915;-72
2023/08/02 12:57:13;;;;;;;;;;;21.00;71.30;;;;;;4999358;28;754;-71
2023/08/02 12:59:39;;;;;;;;;;;21.00;71.30;;;;;;5001055;28;915;-71
2023/08/02 13:02:05;;;;;;;;;;;21.00;71.30;;;;;;4999961;28;1111;-71
2023/08/02 13:04:30;;;;;;;;;;;21.00;71.30;;;;;;4998426;28;1268;-71
2023/08/02 13:06:57;;;;;;;;;;;21.00;71.30;;;;;;4999479;28;950;-71
2023/08/02 13:09:23;;;;;;;;;;;21.00;71.30;;;;;;4998939;28;868;-71
2023/08/02 13:11:48;;;;;;;;;;;21.00;71.30;;;;;;4999728;28;902;-71
2023/08/02 13:14:14;;;;;;;;;;;21.00;71.30;;;;;;4986304;28;1898;-71
2023/08/02 13:16:39;;;;;;;;;;;21.10;71.40;;;;;;4994007;28;1310;-71
2023/08/02 13:19:05;;;;;;;;;;;21.00;71.30;;;;;;5001477;28;1062;-71
2023/08/02 13:21:30;;;;;;;;;;;21.00;71.30;;;;;;4999416;28;953;-72
2023/08/02 13:23:56;;;;;;;;;;;21.00;71.30;;;;;;5000015;28;1207;-71
2023/08/02 13:26:21;;;;;;;;;;;21.00;71.30;;;;;;5003524;28;830;-71
2023/08/02 13:28:47;;;;;;;;;;;21.00;71.30;;;;;;4999009;28;1698;-71
2023/08/02 13:31:12;;;;;;;;;;;21.00;71.30;;;;;;5001490;28;1428;-71
2023/08/02 13:33:41;;;;;;;;;;;21.00;71.30;;;;;;5000015;28;1271;-71
2023/08/02 13:36:07;;;;;;;;;;;21.00;71.30;;;;;;4998512;28;1906;-71
2023/08/02 13:38:32;;;;;;;;;;;21.00;71.30;;;;;;4994974;28;1336;-71
2023/08/02 13:40:58;;;;;;;;;;;21.00;71.30;;;;;;4999952;28;1003;-71
2023/08/02 13:43:24;;;;;;;;;;;21.00;71.30;;;;;;5003909;28;1536;-71
2023/08/02 13:45:50;;;;;;;;;;;21.00;71.30;;;;;;5001989;28;852;-70
2023/08/02 13:48:15;;;;;;;;;;;21.00;71.30;;;;;;4989077;28;1022;-70
2023/08/02 13:50:41;;;;;;;;;;;21.00;71.30;;;;;;5002373;28;1054;-72
2023/08/02 13:53:06;;;;;;;;;;;21.00;71.30;;;;;;5002927;28;1266;-69
2023/08/02 13:55:32;;;;;;;;;;;21.00;71.30;;;;;;4993229;28;2024;-70
2023/08/02 13:57:58;;;;;;;;;;;21.00;71.20;;;;;;5002754;28;869;-69
2023/08/02 14:00:23;;;;;;;;;;;21.00;71.20;;;;;;5003958;28;826;-71
2023/08/02 14:02:49;;;;;;;;;;;21.00;71.30;;;;;;4988119;28;1338;-71
2023/08/02 14:05:14;;;;;;;;;;;21.00;71.30;;;;;;4998980;28;1003;-71
2023/08/02 14:07:40;;;;;;;;;;;21.00;71.30;;;;;;5003062;28;824;-71
2023/08/02 14:10:05;;;;;;;;;;;21.10;71.30;;;;;;4998750;28;864;-71
2023/08/02 14:12:30;;;;;;;;;;;21.00;71.20;;;;;;5002737;28;1082;-71
2023/08/02 14:14:56;;;;;;;;;;;21.00;71.20;;;;;;5001213;28;1975;-70
2023/08/02 14:17:21;;;;;;;;;;;21.00;71.20;;;;;;4998959;28;813;-71
2023/08/02 14:19:47;;;;;;;;;;;21.00;71.20;;;;;;4998774;28;1410;-72
2023/08/02 14:22:12;;;;;;;;;;;21.00;71.30;;;;;;4985775;28;915;-71
2023/08/02 14:24:38;;;;;;;;;;;21.00;71.20;;;;;;4999034;28;1290;-70
2023/08/02 14:27:07;;;;;;;;;;;21.00;71.20;;;;;;4998881;28;1296;-71
2023/08/02 14:29:33;;;;;;;;;;;21.00;71.20;;;;;;4999188;28;884;-71